Time;durP1;ratioP1;P1;durP2;ratioP2;P2;SDS_P1;SDS_P2;PMS_P1;PMS_P2;Temp;Humidity;BMP_temperature;BMP_pressure;BME280_temperature;BME280_humidity;BME280_pressure;Samples;Min_cycle;Max_cycle;Signal;HPM_P1;HPM_P2
2021/01/30 00:00:29;;;;;;;25.12;12.55;;;;;;;-4.94;79.62;99383.89;1821139;78;20962;-33
2021/01/30 00:02:58;;;;;;;18.20;11.38;;;;;;;-5.00;79.58;99387.95;1821036;78;20923;-31
2021/01/30 00:05:27;;;;;;;28.60;12.45;;;;;;;-5.03;79.59;99387.86;1821123;78;21413;-31
2021/01/30 00:07:57;;;;;;;20.43;11.50;;;;;;;-5.11;79.59;99387.64;1819424;78;21029;-32
2021/01/30 00:10:25;;;;;;;20.23;11.28;;;;;;;-5.20;79.69;99384.03;1821079;78;22416;-32
2021/01/30 00:12:54;;;;;;;25.45;12.90;;;;;;;-5.25;79.81;99389.78;1821040;78;21565;-32
2021/01/30 00:15:25;;;;;;;21.60;10.85;;;;;;;-5.30;79.90;99390.06;1821134;78;20915;-32
2021/01/30 00:17:55;;;;;;;19.73;10.80;;;;;;;-5.34;79.98;99392.47;1821147;78;20967;-32
2021/01/30 00:20:31;;;;;;;17.17;10.13;;;;;;;-5.36;80.09;99392.00;1821208;78;21362;-32
2021/01/30 00:23:00;;;;;;;22.22;11.95;;;;;;;-5.34;80.15;99399.20;1821172;78;21082;-32
2021/01/30 00:25:31;;;;;;;20.72;11.18;;;;;;;-5.31;80.15;99399.67;1821070;78;20915;-33
2021/01/30 00:27:59;;;;;;;16.25;10.23;;;;;;;-5.34;80.06;99397.52;1821204;78;20970;-33
2021/01/30 00:30:29;;;;;;;16.67;10.13;;;;;;;-5.31;79.97;99406.86;1821138;78;20915;-32
2021/01/30 00:32:58;;;;;;;18.07;8.98;;;;;;;-5.30;79.84;99412.77;1819384;78;21398;-32
2021/01/30 00:35:29;;;;;;;21.23;10.25;;;;;;;-5.30;79.64;99412.35;1817237;79;21291;-32
2021/01/30 00:37:57;;;;;;;19.27;10.93;;;;;;;-5.30;79.64;99419.08;1817356;78;21502;-33
2021/01/30 00:40:26;;;;;;;17.02;10.45;;;;;;;-5.35;79.63;99423.98;1817380;78;20915;-32
2021/01/30 00:42:55;;;;;;;17.37;10.48;;;;;;;-5.40;79.67;99419.21;1817274;79;20994;-32
2021/01/30 00:45:25;;;;;;;16.67;10.65;;;;;;;-5.45;79.72;99414.41;1817390;79;21026;-32
2021/01/30 00:47:53;;;;;;;19.55;9.95;;;;;;;-5.50;79.86;99418.08;1817432;79;21192;-32
2021/01/30 00:50:23;;;;;;;15.80;9.83;;;;;;;-5.50;79.94;99418.92;1787148;79;20931;-33
2021/01/30 00:52:51;;;;;;;19.05;10.80;;;;;;;-5.51;79.90;99417.62;1817294;79;21038;-32
2021/01/30 00:55:24;;;;;;;16.70;9.40;;;;;;;-5.55;80.00;99424.66;1816898;79;21019;-32
2021/01/30 00:57:54;;;;;;;16.02;9.10;;;;;;;-5.54;80.03;99420.91;1817297;79;20907;-32
2021/01/30 01:00:25;;;;;;;17.73;9.55;;;;;;;-5.50;79.89;99421.44;1817263;79;21377;-32
2021/01/30 01:02:56;;;;;;;14.95;8.78;;;;;;;-5.52;79.72;99420.55;1817002;79;20922;-32
2021/01/30 01:05:27;;;;;;;19.40;10.70;;;;;;;-5.55;79.63;99419.19;1817415;79;21425;-32
2021/01/30 01:07:55;;;;;;;13.68;8.20;;;;;;;-5.59;79.57;99419.05;1817247;78;20923;-33
2021/01/30 01:10:23;;;;;;;16.77;9.30;;;;;;;-5.66;79.59;99418.87;1817390;79;20975;-32
2021/01/30 01:12:52;;;;;;;18.60;9.68;;;;;;;-5.69;79.70;99420.42;1817251;79;22134;-32
2021/01/30 01:15:21;;;;;;;14.25;9.33;;;;;;;-5.77;79.73;99427.78;1817223;79;21045;-32
2021/01/30 01:17:49;;;;;;;28.65;10.78;;;;;;;-5.81;79.89;99430.59;1817487;79;21500;-32
2021/01/30 01:20:20;;;;;;;35.90;11.53;;;;;;;-5.82;80.05;99431.80;1817583;79;20919;-32
2021/01/30 01:22:48;;;;;;;64.12;13.15;;;;;;;-5.81;80.06;99439.42;1817537;79;20887;-31
2021/01/30 01:25:21;;;;;;;21.93;10.18;;;;;;;-5.87;80.07;99448.06;1817491;79;21361;-32
2021/01/30 01:27:49;;;;;;;23.10;9.48;;;;;;;-5.96;80.08;99450.27;1817509;79;20907;-32
2021/01/30 01:30:19;;;;;;;16.60;10.53;;;;;;;-6.06;80.42;99447.48;1817404;78;20958;-31
2021/01/30 01:32:49;;;;;;;28.90;10.32;;;;;;;-6.13;80.57;99443.45;1817338;78;20947;-32
2021/01/30 01:35:24;;;;;;;39.73;10.18;;;;;;;-6.16;80.65;99449.66;1817530;79;20943;-32
2021/01/30 01:37:52;;;;;;;23.15;10.93;;;;;;;-6.21;80.78;99448.23;1817569;78;21252;-32
2021/01/30 01:40:24;;;;;;;24.90;9.48;;;;;;;-6.24;80.92;99451.53;1817514;79;21006;-33
2021/01/30 01:43:03;;;;;;;31.62;10.80;;;;;;;-6.21;81.17;99453.27;1817508;78;20994;-31
2021/01/30 01:45:31;;;;;;;25.52;10.15;;;;;;;-6.22;81.08;99461.64;1817387;79;21006;-32
2021/01/30 01:48:06;;;;;;;30.68;11.38;;;;;;;-6.36;81.06;99462.44;1817580;79;20888;-32
2021/01/30 01:50:43;;;;;;;40.78;12.30;;;;;;;-6.50;81.28;99459.45;1817602;78;22281;-33
2021/01/30 01:53:17;;;;;;;41.25;11.78;;;;;;;-6.65;81.49;99459.39;1817408;79;21006;-32
2021/01/30 01:55:55;;;;;;;50.40;12.35;;;;;;;-6.77;81.56;99463.13;1817766;79;21458;-32
2021/01/30 01:58:23;;;;;;;50.88;13.25;;;;;;;-6.91;81.75;99466.00;1817454;79;20962;-32
2021/01/30 02:00:50;;;;;;;41.35;14.43;;;;;;;-7.03;81.97;99460.53;1788301;79;20907;-32
2021/01/30 02:03:19;;;;;;;41.02;14.30;;;;;;;-7.11;82.26;99458.98;1817523;79;21192;-31
2021/01/30 02:05:47;;;;;;;37.38;14.23;;;;;;;-7.17;82.48;99461.28;1817448;79;20879;-32
2021/01/30 02:08:18;;;;;;;39.73;15.05;;;;;;;-7.24;82.69;99464.80;1817411;79;20970;-32
2021/01/30 02:10:50;;;;;;;29.05;13.68;;;;;;;-7.30;82.93;99473.38;1817397;79;20923;-33
2021/01/30 02:13:34;;;;;;;28.98;14.87;;;;;;;-7.37;83.15;99473.95;1817459;79;20916;-32
2021/01/30 02:16:11;;;;;;;29.05;16.40;;;;;;;-7.40;83.47;99479.72;1813786;79;21159;-32
2021/01/30 02:18:50;;;;;;;29.45;15.08;;;;;;;-7.43;83.86;99483.37;1817465;79;20995;-32
2021/01/30 02:22:05;;;;;;;31.75;16.35;;;;;;;-7.43;84.25;99483.79;1817508;79;20911;-32
2021/01/30 02:25:07;;;;;;;28.95;15.23;;;;;;;-7.43;84.39;99487.14;1817408;79;20990;-32
2021/01/30 02:28:04;;;;;;;31.25;17.15;;;;;;;-7.43;84.75;99483.37;1817434;79;20970;-31
2021/01/30 02:31:03;;;;;;;33.85;17.75;;;;;;;-7.41;84.99;99480.93;1817437;79;21193;-32
2021/01/30 02:33:55;;;;;;;31.12;17.23;;;;;;;-7.41;85.00;99482.19;1816893;79;21006;-32
2021/01/30 02:36:40;;;;;;;36.20;19.65;;;;;;;-7.42;85.54;99473.77;1817467;79;20971;-31
2021/01/30 02:39:35;;;;;;;36.73;19.48;;;;;;;-7.39;85.47;99481.43;1817516;79;20982;-31
2021/01/30 02:42:21;;;;;;;33.73;18.48;;;;;;;-7.43;85.25;99482.12;1817408;78;20943;-31
2021/01/30 02:45:04;;;;;;;35.23;17.50;;;;;;;-7.50;85.44;99473.47;1817413;79;21187;-33
2021/01/30 02:47:43;;;;;;;32.05;18.35;;;;;;;-7.47;85.78;99466.84;1810448;77;22271;-34
2021/01/30 02:50:23;;;;;;;34.60;18.87;;;;;;;-7.52;86.00;99476.33;1782280;80;21292;-31
2021/01/30 02:52:52;;;;;;;38.02;20.02;;;;;;;-7.53;85.96;99467.48;1782360;79;21366;-33
2021/01/30 02:55:20;;;;;;;40.25;20.97;;;;;;;-7.57;85.94;99466.91;1782271;80;21034;-32
2021/01/30 02:57:48;;;;;;;37.67;21.50;;;;;;;-7.62;85.94;99464.21;1782388;80;20931;-33
2021/01/30 03:00:18;;;;;;;38.00;20.10;;;;;;;-7.67;85.92;99463.18;1782265;80;20967;-33
2021/01/30 03:02:45;;;;;;;38.10;20.05;;;;;;;-7.74;85.96;99464.97;1782324;80;20994;-32
2021/01/30 03:05:14;;;;;;;42.35;21.60;;;;;;;-7.76;86.33;99460.28;1782316;80;21245;-32
2021/01/30 03:08:15;;;;;;;48.15;21.12;;;;;;;-7.79;86.39;99456.02;1782301;80;20987;-33
2021/01/30 03:10:54;;;;;;;39.63;21.07;;;;;;;-7.82;86.45;99456.73;1782445;80;20987;-32
2021/01/30 03:13:39;;;;;;;39.20;19.87;;;;;;;-7.82;86.76;99455.89;1782346;80;20995;-32
2021/01/30 03:16:12;;;;;;;36.53;19.57;;;;;;;-7.79;87.03;99450.57;1770241;80;20907;-33
2021/01/30 03:18:57;;;;;;;40.52;21.35;;;;;;;-7.75;87.18;99445.66;1782334;80;21338;-33
2021/01/30 03:21:24;;;;;;;42.27;21.50;;;;;;;-7.73;87.24;99447.83;1782308;80;21002;-32
2021/01/30 03:23:52;;;;;;;47.53;22.62;;;;;;;-7.77;87.14;99448.52;1752021;80;20978;-32
2021/01/30 03:26:22;;;;;;;35.13;19.98;;;;;;;-7.82;87.11;99449.20;1727523;80;20967;-33
2021/01/30 03:28:50;;;;;;;39.92;19.20;;;;;;;-7.85;87.10;99453.23;1782308;79;20904;-33
2021/01/30 03:31:17;;;;;;;38.83;19.30;;;;;;;-7.89;87.15;99457.69;1782318;80;21253;-32
2021/01/30 03:33:45;;;;;;;34.23;18.48;;;;;;;-7.90;87.26;99466.02;1782288;80;21002;-32
2021/01/30 03:36:13;;;;;;;36.33;20.32;;;;;;;-7.94;87.42;99465.91;1782217;80;20986;-32
2021/01/30 03:38:41;;;;;;;38.50;19.98;;;;;;;-7.89;87.80;99462.33;1782256;80;21042;-32
2021/01/30 03:41:09;;;;;;;52.65;21.17;;;;;;;-7.83;88.23;99472.61;1782284;80;20907;-33
2021/01/30 03:43:37;;;;;;;78.20;20.80;;;;;;;-7.73;88.52;99471.33;1782371;80;22324;-32
2021/01/30 03:46:05;;;;;;;89.75;21.90;;;;;;;-7.63;88.45;99471.30;1779428;80;21011;-32
2021/01/30 03:48:33;;;;;;;44.25;20.70;;;;;;;-7.58;88.32;99468.94;1768565;81;20971;-32
2021/01/30 03:51:03;;;;;;;58.55;20.52;;;;;;;-7.54;88.20;99470.39;1768530;80;21415;-32
2021/01/30 03:53:31;;;;;;;58.73;20.17;;;;;;;-7.56;88.10;99453.13;1768602;81;21019;-32
2021/01/30 03:55:59;;;;;;;48.08;21.48;;;;;;;-7.57;88.07;99463.14;1768602;81;21198;-33
2021/01/30 03:58:27;;;;;;;67.50;21.65;;;;;;;-7.61;88.05;99458.38;1768115;81;20908;-32
2021/01/30 04:00:55;;;;;;;47.65;19.60;;;;;;;-7.64;87.86;99453.23;1767919;81;20936;-32
2021/01/30 04:03:23;;;;;;;42.25;19.20;;;;;;;-7.72;87.66;99447.91;1767984;81;20972;-33
2021/01/30 04:05:51;;;;;;;37.33;18.75;;;;;;;-7.84;87.48;99446.16;1768046;81;20908;-32
2021/01/30 04:08:19;;;;;;;34.30;18.87;;;;;;;-7.96;87.43;99455.31;1767986;81;21200;-32
2021/01/30 04:11:46;;;;;;;35.15;18.35;;;;;;;-8.08;87.36;99456.55;1816180;79;22608;-33
2021/01/30 04:14:14;;;;;;;35.48;19.37;;;;;;;-8.19;87.52;99459.03;1789273;80;20936;-31
2021/01/30 04:16:42;;;;;;;35.88;19.20;;;;;;;-8.21;87.71;99465.63;1789272;80;21210;-31
2021/01/30 04:19:10;;;;;;;30.12;17.82;;;;;;;-8.24;87.90;99462.61;1789130;80;20955;-31
2021/01/30 04:21:38;;;;;;;29.37;17.82;;;;;;;-8.23;88.04;99465.95;1789266;80;20939;-31
2021/01/30 04:24:07;;;;;;;31.30;17.75;;;;;;;-8.18;88.27;99471.18;1789222;80;20908;-31
2021/01/30 04:26:34;;;;;;;40.10;19.57;;;;;;;-8.12;88.46;99466.41;1789237;80;20935;-32
2021/01/30 04:29:03;;;;;;;31.80;18.15;;;;;;;-8.05;88.58;99453.32;1789206;80;21193;-31
2021/01/30 04:31:30;;;;;;;33.98;18.70;;;;;;;-7.98;88.74;99450.63;1789217;80;21537;-32
2021/01/30 04:33:58;;;;;;;32.95;17.57;;;;;;;-7.91;88.82;99451.74;1789236;80;21034;-32
2021/01/30 04:36:26;;;;;;;33.85;17.62;;;;;;;-7.85;88.83;99465.80;1789232;80;20930;-32
2021/01/30 04:38:54;;;;;;;35.25;16.90;;;;;;;-7.81;88.77;99471.44;1789282;80;20923;-33
2021/01/30 04:42:00;;;;;;;35.55;17.90;;;;;;;-7.78;88.70;99466.53;1789247;80;21158;-32
2021/01/30 04:44:45;;;;;;;38.98;19.75;;;;;;;-7.72;88.75;99467.14;1789182;80;21061;-33
2021/01/30 04:47:42;;;;;;;33.83;18.02;;;;;;;-7.63;88.87;99472.94;1789304;80;20986;-33
2021/01/30 04:50:49;;;;;;;34.92;18.42;;;;;;;-7.58;88.87;99464.78;1789167;80;21738;-33
2021/01/30 04:53:41;;;;;;;39.10;18.70;;;;;;;-7.52;88.82;99471.30;1789246;80;20919;-32
2021/01/30 04:56:32;;;;;;;41.68;19.95;;;;;;;-7.46;88.82;99472.33;1789208;80;21362;-33
2021/01/30 04:59:12;;;;;;;33.48;18.75;;;;;;;-7.40;88.85;99457.08;1789047;80;21038;-32
2021/01/30 05:02:03;;;;;;;36.25;19.62;;;;;;;-7.34;88.96;99453.95;1731447;80;20939;-32
2021/01/30 05:04:36;;;;;;;36.77;19.87;;;;;;;-7.27;88.95;99456.30;1789194;80;20999;-33
2021/01/30 05:07:21;;;;;;;36.03;19.92;;;;;;;-7.19;88.99;99454.08;1789228;80;20907;-33
2021/01/30 05:09:58;;;;;;;36.68;19.37;;;;;;;-7.14;88.98;99458.88;1788697;80;21577;-33
2021/01/30 05:12:48;;;;;;;33.33;19.00;;;;;;;-7.08;88.92;99448.61;1775566;80;20920;-32
2021/01/30 05:16:00;;;;;;;30.95;17.52;;;;;;;-7.02;88.85;99436.66;1775738;80;21062;-33
2021/01/30 05:18:41;;;;;;;32.85;17.35;;;;;;;-6.99;88.75;99446.84;1775598;80;21070;-33
2021/01/30 05:21:20;;;;;;;31.70;17.40;;;;;;;-6.98;88.65;99447.29;1775260;80;20979;-33
2021/01/30 05:23:51;;;;;;;34.13;18.23;;;;;;;-7.00;88.46;99455.19;1775134;80;21376;-33
2021/01/30 05:26:27;;;;;;;30.68;17.45;;;;;;;-7.02;88.37;99450.92;1775132;80;21549;-33
2021/01/30 05:29:24;;;;;;;33.15;18.75;;;;;;;-7.06;88.35;99460.00;1775107;80;21434;-32
2021/01/30 05:32:18;;;;;;;35.00;18.95;;;;;;;-7.10;88.35;99463.21;1775112;80;21022;-34
2021/01/30 05:34:54;;;;;;;35.13;18.92;;;;;;;-7.11;88.40;99464.02;1775162;80;20988;-31
2021/01/30 05:37:38;;;;;;;;;;;;;;;-7.12;88.45;99470.69;1777814;80;21422;-34
2021/01/30 05:40:38;;;;;;;40.12;20.50;;;;;;;-7.12;88.43;99467.33;1774905;80;20103;-32
2021/01/30 05:43:20;;;;;;;42.90;21.15;;;;;;;-7.13;88.37;99469.39;1748144;80;20912;-33
2021/01/30 05:45:55;;;;;;;47.58;22.42;;;;;;;-7.13;88.42;99454.30;1775109;80;21380;-33
2021/01/30 05:48:30;;;;;;;48.83;22.98;;;;;;;-7.09;88.51;99464.92;1775231;80;26917;-31
2021/01/30 05:51:12;;;;;;;51.15;23.87;;;;;;;-7.04;88.57;99481.05;1774297;80;21388;-32
2021/01/30 05:53:42;;;;;;;43.02;21.27;;;;;;;-6.95;88.71;99476.76;1772334;80;21085;-32
2021/01/30 05:56:10;;;;;;;43.60;21.62;;;;;;;-6.84;88.82;99475.47;1752642;80;20936;-32
2021/01/30 05:58:43;;;;;;;43.75;20.48;;;;;;;-6.70;88.85;99488.55;1775084;80;21031;-31
2021/01/30 06:01:25;;;;;;;40.15;19.92;;;;;;;-6.55;88.87;99484.88;1775108;80;21597;-33
2021/01/30 06:04:03;;;;;;;35.75;19.60;;;;;;;-6.39;88.84;99488.40;1775148;80;21359;-33
2021/01/30 06:06:38;;;;;;;35.50;18.85;;;;;;;-6.22;88.66;99478.89;1774961;80;21003;-32
2021/01/30 06:09:39;;;;;;;37.93;20.27;;;;;;;-6.08;88.52;99477.22;1775158;80;20880;-31
2021/01/30 06:12:32;;;;;;;35.25;20.10;;;;;;;-5.93;88.39;99486.94;1779727;80;20928;-31
2021/01/30 06:15:16;;;;;;;36.33;19.50;;;;;;;-5.77;88.24;99479.05;1780997;80;20928;-32
2021/01/30 06:17:44;;;;;;;35.92;20.70;;;;;;;-5.63;88.02;99466.03;1752816;80;21425;-32
2021/01/30 06:20:24;;;;;;;32.70;18.40;;;;;;;-5.50;87.88;99460.97;1780855;80;20983;-31
2021/01/30 06:23:08;;;;;;;36.58;20.55;;;;;;;-5.37;87.62;99459.25;1780863;80;21387;-34
2021/01/30 06:25:43;;;;;;;35.30;19.15;;;;;;;-5.25;87.41;99469.27;1780799;80;20880;-32
2021/01/30 06:28:30;;;;;;;37.08;19.45;;;;;;;-5.14;87.27;99471.69;1780873;80;21898;-33
2021/01/30 06:31:13;;;;;;;29.72;17.15;;;;;;;-5.02;87.05;99480.45;1780791;80;21557;-33
2021/01/30 06:33:51;;;;;;;32.70;17.48;;;;;;;-4.92;86.78;99487.08;1773812;80;21066;-32
2021/01/30 06:36:23;;;;;;;34.45;19.42;;;;;;;-4.83;86.31;99481.83;1780929;80;21015;-33
2021/01/30 06:38:57;;;;;;;30.45;17.67;;;;;;;-4.74;86.11;99493.44;1780798;80;20975;-33
2021/01/30 06:41:29;;;;;;;31.57;18.42;;;;;;;-4.65;85.79;99492.45;1780845;80;21030;-33
2021/01/30 06:44:23;;;;;;;31.33;16.77;;;;;;;-4.56;85.50;99497.30;1780789;80;21206;-34
2021/01/30 06:47:20;;;;;;;34.03;17.07;;;;;;;-4.48;85.07;99488.25;1780737;80;21046;-35
2021/01/30 06:49:53;;;;;;;;;;;;;;;-4.37;84.90;99484.36;1783495;80;21542;-33
2021/01/30 06:52:25;;;;;;;30.82;16.62;;;;;;;-4.18;84.55;99488.61;1780856;80;20139;-32
2021/01/30 06:55:07;;;;;;;31.30;17.77;;;;;;;-4.01;84.46;99488.19;1780822;80;20900;-32
2021/01/30 06:57:49;;;;;;;33.55;18.12;;;;;;;-3.81;84.31;99476.90;1779987;80;22836;-33
2021/01/30 07:00:25;;;;;;;25.85;16.77;;;;;;;-3.63;83.67;99474.38;1780775;80;20983;-32
2021/01/30 07:03:29;;;;;;;28.90;17.25;;;;;;;-3.46;83.26;99462.94;1780816;80;21403;-33
2021/01/30 07:06:23;;;;;;;28.83;17.25;;;;;;;-3.32;82.65;99459.45;1764939;80;20947;-33
2021/01/30 07:09:15;;;;;;;28.73;16.55;;;;;;;-3.29;80.69;99456.14;1780788;80;20994;-33
2021/01/30 07:12:05;;;;;;;25.23;15.08;;;;;;;-3.26;80.64;99449.88;1777815;80;20999;-32
2021/01/30 07:14:49;;;;;;;26.20;15.45;;;;;;;-3.19;80.21;99452.98;1774896;80;20935;-33
2021/01/30 07:18:03;;;;;;;26.27;15.78;;;;;;;-3.11;79.98;99448.51;1775081;80;20972;-32
2021/01/30 07:20:43;;;;;;;32.10;18.20;;;;;;;-3.00;80.02;99449.57;1775093;80;21497;-33
2021/01/30 07:23:29;;;;;;;34.45;18.42;;;;;;;-2.78;79.87;99445.81;1775022;80;21050;-33
2021/01/30 07:26:34;;;;;;;36.60;17.20;;;;;;;-2.62;79.41;99448.62;1761492;80;21212;-33
2021/01/30 07:29:07;;;;;;;31.25;16.82;;;;;;;-2.42;79.32;99445.61;1758240;80;21015;-33
2021/01/30 07:31:47;;;;;;;27.52;17.05;;;;;;;-2.25;78.26;99451.84;1774960;80;20983;-33
2021/01/30 07:34:29;;;;;;;25.72;15.38;;;;;;;-2.18;78.00;99440.98;1774961;80;20999;-31
2021/01/30 07:37:20;;;;;;;26.77;15.93;;;;;;;-2.13;77.17;99440.19;1774820;80;20915;-31
2021/01/30 07:39:53;;;;;;;27.55;16.67;;;;;;;-2.13;77.20;99433.45;1774857;80;21364;-32
2021/01/30 07:42:57;;;;;;;24.07;15.45;;;;;;;-2.12;76.84;99439.36;1774820;80;21017;-32
2021/01/30 07:45:28;;;;;;;27.17;15.75;;;;;;;-2.08;76.63;99443.26;1774984;80;21054;-32
2021/01/30 07:48:32;;;;;;;23.47;13.25;;;;;;;-1.99;76.37;99444.23;1774981;80;20888;-33
2021/01/30 07:51:10;;;;;;;21.75;13.18;;;;;;;-1.84;76.50;99441.08;1774944;80;20995;-36
2021/01/30 07:53:38;;;;;;;19.80;11.85;;;;;;;-1.69;74.86;99443.00;1775013;80;21337;-33
2021/01/30 07:56:21;;;;;;;19.42;11.85;;;;;;;-1.61;74.52;99437.64;1753247;80;20991;-32
2021/01/30 07:59:26;;;;;;;18.60;11.73;;;;;;;-1.55;73.71;99438.13;1775010;80;21007;-32
2021/01/30 08:02:26;;;;;;;18.02;11.30;;;;;;;-1.47;73.91;99438.68;1775145;80;20931;-33
2021/01/30 08:05:08;;;;;;;19.25;11.25;;;;;;;-1.34;72.90;99440.98;1774989;80;20893;-33
2021/01/30 08:07:56;;;;;;;18.32;11.30;;;;;;;-1.25;72.21;99435.17;1774922;80;22700;-33
2021/01/30 08:11:05;;;;;;;16.97;10.72;;;;;;;-1.16;71.80;99444.61;1774912;80;20936;-31
2021/01/30 08:13:56;;;;;;;22.25;11.88;;;;;;;-1.05;71.39;99443.48;1775017;80;20963;-32
2021/01/30 08:16:33;;;;;;;17.57;10.50;;;;;;;-0.89;71.40;99449.16;1768312;80;21423;-32
2021/01/30 08:19:06;;;;;;;15.68;10.30;;;;;;;-0.79;70.61;99434.05;1775057;80;20995;-32
2021/01/30 08:21:54;;;;;;;16.25;10.95;;;;;;;-0.73;69.99;99440.06;1753349;80;21214;-32
2021/01/30 08:24:45;;;;;;;18.45;10.15;;;;;;;-0.61;69.31;99438.07;1774935;80;21003;-33
2021/01/30 08:27:20;;;;;;;14.13;10.10;;;;;;;-0.45;68.80;99439.08;1774971;80;21054;-32
2021/01/30 08:29:52;;;;;;;24.80;10.13;;;;;;;-0.28;67.98;99428.63;1753409;80;21537;-33
2021/01/30 08:32:30;;;;;;;14.70;9.63;;;;;;;-0.07;68.06;99433.05;1774960;80;21510;-33
2021/01/30 08:35:22;;;;;;;16.07;10.95;;;;;;;0.16;67.42;99433.26;1774944;80;21204;-33
2021/01/30 08:38:04;;;;;;;15.10;9.05;;;;;;;0.40;66.89;99433.01;1774899;80;21007;-33
2021/01/30 08:40:54;;;;;;;20.05;10.48;;;;;;;0.43;65.41;99435.57;1775007;80;20936;-33
2021/01/30 08:43:46;;;;;;;18.37;10.53;;;;;;;0.37;65.37;99438.05;1770649;80;21022;-33
2021/01/30 08:46:28;;;;;;;22.05;10.70;;;;;;;0.35;65.88;99434.64;1774929;80;20999;-34
2021/01/30 08:49:16;;;;;;;15.25;10.43;;;;;;;0.34;65.54;99426.58;1774951;80;21380;-33
2021/01/30 08:51:56;;;;;;;19.25;11.70;;;;;;;0.28;65.98;99423.16;1774900;80;20995;-34
2021/01/30 08:54:42;;;;;;;16.60;11.33;;;;;;;0.29;66.37;99424.02;1764923;80;20916;-32
2021/01/30 08:57:33;;;;;;;;;;;;;;;0.27;66.56;99416.36;1777515;80;20995;-33
2021/01/30 09:00:13;;;;;;;22.27;11.90;;;;;;;0.20;66.36;99415.02;1775089;80;20100;-33
2021/01/30 09:02:46;;;;;;;33.30;12.58;;;;;;;0.12;67.25;99418.78;1774222;80;21382;-33
2021/01/30 09:05:26;;;;;;;48.20;14.03;;;;;;;0.17;67.78;99408.64;1775020;80;20984;-33
2021/01/30 09:07:57;;;;;;;66.40;17.25;;;;;;;0.28;67.78;99403.22;1775016;80;20889;-35
2021/01/30 09:10:40;;;;;;;23.77;13.18;;;;;;;0.43;68.01;99401.19;1774940;80;21077;-33
2021/01/30 09:13:17;;;;;;;27.10;12.33;;;;;;;0.51;67.49;99403.35;1774985;80;20911;-33
2021/01/30 09:15:50;;;;;;;22.70;12.68;;;;;;;0.49;67.59;99401.22;1775118;80;22208;-33
2021/01/30 09:18:36;;;;;;;28.85;13.68;;;;;;;0.49;67.61;99398.67;1775024;80;21018;-33
2021/01/30 09:21:15;;;;;;;41.73;15.20;;;;;;;0.48;67.92;99402.47;1775255;80;24805;-33
2021/01/30 09:24:23;;;;;;;25.72;14.73;;;;;;;0.43;68.09;99407.13;1768528;80;21010;-32
2021/01/30 09:27:06;;;;;;;32.93;16.52;;;;;;;0.41;68.37;99402.88;1775050;80;20961;-31
2021/01/30 09:29:39;;;;;;;40.58;14.78;;;;;;;0.35;68.93;99405.36;1775100;80;21419;-35
2021/01/30 09:32:07;;;;;;;28.07;14.15;;;;;;;0.32;69.36;99407.48;1774970;80;20963;-34
2021/01/30 09:34:44;;;;;;;49.83;15.53;;;;;;;0.32;69.54;99393.48;1775079;80;20924;-32
2021/01/30 09:37:28;;;;;;;24.90;14.35;;;;;;;0.27;70.13;99401.08;1775014;80;21209;-33
2021/01/30 09:39:57;;;;;;;36.48;14.63;;;;;;;0.18;71.12;99395.07;1774292;80;21074;-33
2021/01/30 09:42:27;;;;;;;29.23;15.35;;;;;;;0.16;71.53;99394.21;1774966;80;22199;-32
2021/01/30 09:45:15;;;;;;;23.42;14.85;;;;;;;0.17;72.11;99394.64;1775076;80;21681;-33
2021/01/30 09:47:47;;;;;;;27.70;15.30;;;;;;;0.17;72.46;99388.28;1775059;80;21003;-33
2021/01/30 09:50:20;;;;;;;26.68;14.87;;;;;;;0.15;73.20;99387.02;1753630;80;20979;-33
2021/01/30 09:53:01;;;;;;;27.02;15.95;;;;;;;0.13;73.52;99392.52;1775124;80;20924;-33
2021/01/30 09:55:30;;;;;;;26.15;15.40;;;;;;;0.11;73.85;99390.35;1775058;80;22764;-33
2021/01/30 09:58:10;;;;;;;27.13;16.65;;;;;;;0.14;74.78;99381.49;1774960;80;21018;-33
2021/01/30 10:00:43;;;;;;;31.80;17.23;;;;;;;0.13;74.87;99376.80;1773926;80;21039;-33
2021/01/30 10:03:23;;;;;;;25.80;15.50;;;;;;;0.19;75.25;99376.00;1774977;80;21162;-33
2021/01/30 10:05:57;;;;;;;34.55;16.95;;;;;;;0.26;75.40;99379.02;1775061;80;20971;-34
2021/01/30 10:08:29;;;;;;;31.68;16.85;;;;;;;0.29;75.70;99369.28;1774520;80;21490;-33
2021/01/30 10:11:18;;;;;;;27.90;17.33;;;;;;;0.30;76.04;99368.44;1775255;80;21518;-33
2021/01/30 10:13:52;;;;;;;25.88;16.25;;;;;;;0.25;76.44;99368.40;1774979;80;20886;-32
2021/01/30 10:16:22;;;;;;;26.12;16.35;;;;;;;0.25;76.91;99364.58;1774910;80;21094;-33
2021/01/30 10:19:14;;;;;;;32.45;18.00;;;;;;;0.25;77.32;99354.40;1775148;80;20987;-33
2021/01/30 10:21:43;;;;;;;27.58;16.32;;;;;;;0.23;77.79;99354.81;1774526;80;22810;-34
2021/01/30 10:24:29;;;;;;;27.98;17.73;;;;;;;0.22;78.44;99349.30;1774950;80;21703;-34
2021/01/30 10:27:23;;;;;;;31.37;19.27;;;;;;;0.25;78.71;99355.67;1775016;80;20995;-33
2021/01/30 10:29:52;;;;;;;27.45;17.95;;;;;;;0.32;79.20;99350.20;1755216;80;21001;-33
2021/01/30 10:32:47;;;;;;;31.52;20.40;;;;;;;0.38;79.46;99341.72;1775114;80;21050;-34
2021/01/30 10:35:30;;;;;;;29.37;17.40;;;;;;;0.46;79.49;99334.12;1774956;80;21394;-34
2021/01/30 10:38:03;;;;;;;28.25;15.88;;;;;;;0.51;79.89;99329.49;1775017;80;20952;-35
2021/01/30 10:40:43;;;;;;;33.83;17.57;;;;;;;0.55;79.85;99321.02;1774958;80;20979;-33
2021/01/30 10:43:19;;;;;;;31.97;16.87;;;;;;;0.54;80.01;99318.05;1774963;80;20987;-33
2021/01/30 10:45:54;;;;;;;39.35;17.42;;;;;;;0.56;80.21;99311.26;1775138;80;20923;-33
2021/01/30 10:48:24;;;;;;;;;;;;;;;0.56;80.31;99312.53;1769800;80;22510;-36
2021/01/30 10:50:53;;;;;;;29.10;18.10;;;;;;;0.49;80.67;99304.85;1774983;80;20100;-33
2021/01/30 10:53:37;;;;;;;28.10;17.35;;;;;;;0.46;80.87;99305.70;1753152;80;21042;-35
2021/01/30 10:56:22;;;;;;;28.20;18.12;;;;;;;0.45;81.15;99301.88;1755235;80;21023;-35
2021/01/30 10:58:52;;;;;;;33.60;19.05;;;;;;;0.34;81.32;99298.00;1775166;80;20940;-35
2021/01/30 11:01:32;;;;;;;33.78;18.57;;;;;;;0.31;81.66;99303.08;1753428;80;22134;-34
2021/01/30 11:04:03;;;;;;;39.58;17.85;;;;;;;0.30;81.93;99297.56;1774467;80;21518;-35
2021/01/30 11:06:40;;;;;;;31.48;18.32;;;;;;;0.29;82.11;99300.55;1775121;80;21403;-35
2021/01/30 11:09:20;;;;;;;28.92;17.07;;;;;;;0.28;82.20;99292.48;1774992;80;21062;-33
2021/01/30 11:11:54;;;;;;;27.80;17.30;;;;;;;0.28;82.30;99288.22;1775007;80;20932;-35
2021/01/30 11:14:29;;;;;;;30.88;17.27;;;;;;;0.32;82.60;99278.91;1753925;81;21207;-33
2021/01/30 11:16:59;;;;;;;36.63;18.20;;;;;;;0.34;82.73;99277.22;1754627;81;20927;-33
2021/01/30 11:19:35;;;;;;;30.82;18.50;;;;;;;0.33;82.86;99269.16;1754666;81;21423;-34
2021/01/30 11:22:18;;;;;;;33.38;19.52;;;;;;;0.34;83.00;99264.90;1754720;81;21090;-35
2021/01/30 11:24:48;;;;;;;28.07;17.02;;;;;;;0.34;83.18;99253.44;1754707;81;20932;-34
2021/01/30 11:27:45;;;;;;;26.97;17.12;;;;;;;0.37;83.27;99241.99;1754594;81;21384;-35
2021/01/30 11:30:27;;;;;;;34.65;17.50;;;;;;;0.35;83.52;99233.09;1754503;81;21058;-34
2021/01/30 11:33:12;;;;;;;31.10;16.65;;;;;;;0.34;83.77;99230.53;1753870;81;20999;-35
2021/01/30 11:35:43;;;;;;;27.13;17.35;;;;;;;0.28;84.16;99225.84;1754623;81;20983;-34
2021/01/30 11:38:17;;;;;;;25.20;16.52;;;;;;;0.32;84.39;99222.03;1754593;81;21022;-34
2021/01/30 11:40:48;;;;;;;25.40;16.67;;;;;;;0.33;84.59;99205.91;1754877;81;21422;-33
2021/01/30 11:43:16;;;;;;;26.37;16.85;;;;;;;0.41;84.73;99202.55;1754697;81;20990;-33
2021/01/30 11:45:45;;;;;;;29.75;16.37;;;;;;;0.47;84.68;99203.41;1754642;81;20932;-31
2021/01/30 11:48:13;;;;;;;25.45;15.93;;;;;;;0.46;84.89;99203.84;1754586;81;21022;-33
2021/01/30 11:50:42;;;;;;;29.23;15.55;;;;;;;0.36;85.20;99203.38;1754669;81;21041;-34
2021/01/30 11:53:20;;;;;;;27.48;14.53;;;;;;;0.32;85.35;99202.94;1754561;81;21238;-35
2021/01/30 11:55:48;;;;;;;25.85;14.85;;;;;;;0.26;85.51;99204.62;1754681;81;20991;-32
2021/01/30 11:58:16;;;;;;;25.72;13.38;;;;;;;0.25;85.73;99191.47;1754670;81;20963;-34
2021/01/30 12:00:44;;;;;;;30.05;18.15;;;;;;;0.32;85.81;99187.67;1754535;81;21019;-34
2021/01/30 12:03:23;;;;;;;34.18;19.00;;;;;;;0.31;86.09;99177.05;1754688;81;21977;-34
2021/01/30 12:05:52;;;;;;;35.03;18.65;;;;;;;0.36;86.24;99181.73;1754335;81;22285;-33
2021/01/30 12:08:20;;;;;;;202.90;103.80;;;;;;;0.40;86.36;99180.92;1754523;81;20931;-33
2021/01/30 12:10:51;;;;;;;54.20;27.35;;;;;;;0.47;86.29;99188.99;1754607;81;20936;-33